createdAt,value
2023-03-05T00:00:00.386Z,-0.6
2023-03-05T00:15:00.374Z,-0.7
2023-03-05T00:30:00.320Z,-0.8
2023-03-05T00:45:00.333Z,-0.8
2023-03-05T01:00:00.387Z,-0.8
2023-03-05T01:15:00.324Z,-1.1
2023-03-05T01:30:00.340Z,-1.1
2023-03-05T01:45:00.291Z,-1.2
2023-03-05T02:00:00.328Z,-1.4
2023-03-05T02:15:00.302Z,-1.6
2023-03-05T02:30:00.287Z,-1.7
2023-03-05T02:45:00.281Z,-2.0
2023-03-05T03:00:00.340Z,-2.2
2023-03-05T03:15:00.298Z,-2.4
2023-03-05T03:30:00.302Z,-2.6
2023-03-05T03:45:00.315Z,-2.6
2023-03-05T04:00:00.409Z,-2.7
2023-03-05T04:15:00.309Z,-2.8
2023-03-05T04:30:00.341Z,-2.8
2023-03-05T04:45:00.302Z,-3.0
2023-03-05T05:00:00.364Z,-3.0
2023-03-05T05:15:00.303Z,-3.1
2023-03-05T05:30:00.295Z,-3.2
2023-03-05T05:45:00.309Z,-3.3
2023-03-05T06:00:00.430Z,-3.3
2023-03-05T06:15:00.329Z,-3.3
2023-03-05T06:30:00.327Z,-3.2
2023-03-05T06:45:00.323Z,-2.8
2023-03-05T07:00:00.385Z,-2.1
2023-03-05T07:15:00.319Z,-1.4
2023-03-05T07:30:00.320Z,-0.6
2023-03-05T07:45:00.321Z,0.4
2023-03-05T08:00:00.396Z,1.3
2023-03-05T08:15:00.322Z,2.4
2023-03-05T08:30:00.341Z,3.6
2023-03-05T08:45:00.307Z,4.7
2023-03-05T09:00:00.369Z,5.2
2023-03-05T09:15:00.346Z,5.7
2023-03-05T09:30:00.328Z,6.1
2023-03-05T09:45:00.327Z,6.4
2023-03-05T10:00:00.370Z,6.4
2023-03-05T10:15:00.330Z,6.6
2023-03-05T10:30:00.320Z,6.7
2023-03-05T10:45:00.333Z,6.7
2023-03-05T11:00:00.374Z,7.1
2023-03-05T11:15:00.308Z,7.6
2023-03-05T11:30:00.304Z,8.1
2023-03-05T11:45:00.305Z,8.5
2023-03-05T12:00:00.400Z,8.9
2023-03-05T12:15:00.333Z,9.0
2023-03-05T12:30:00.307Z,9.1
2023-03-05T12:45:00.308Z,8.9
2023-03-05T13:00:00.363Z,8.9
2023-03-05T13:15:00.378Z,8.7
2023-03-05T13:30:00.280Z,8.4
2023-03-05T13:45:00.301Z,8.3
2023-03-05T14:00:00.310Z,8.2
2023-03-05T14:15:00.361Z,8.1
2023-03-05T14:30:00.347Z,8.0
2023-03-05T14:45:00.295Z,8.0
2023-03-05T15:00:00.303Z,7.8
2023-03-05T15:15:00.365Z,7.7
2023-03-05T15:30:00.344Z,7.6
2023-03-05T15:45:00.316Z,7.4
2023-03-05T16:00:00.294Z,7.4
2023-03-05T16:15:00.381Z,7.4
2023-03-05T16:30:00.326Z,7.1
2023-03-05T16:45:00.328Z,6.9
2023-03-05T17:00:00.319Z,6.7
2023-03-05T17:15:00.373Z,6.3
2023-03-05T17:30:00.385Z,5.9
2023-03-05T17:45:00.289Z,5.5
2023-03-05T18:00:00.392Z,5.1
2023-03-05T18:15:00.350Z,4.7
2023-03-05T18:30:00.336Z,4.4
2023-03-05T18:45:00.303Z,4.4
2023-03-05T19:00:00.323Z,4.4
2023-03-05T19:15:00.388Z,4.3
2023-03-05T19:30:00.363Z,4.1
2023-03-05T19:45:01.116Z,4.0
2023-03-05T20:00:00.350Z,3.9
2023-03-05T20:15:00.364Z,3.7
2023-03-05T20:30:00.408Z,3.6
2023-03-05T20:45:00.341Z,3.6
2023-03-05T21:00:00.360Z,3.6
2023-03-05T21:15:00.384Z,3.5
2023-03-05T21:30:00.309Z,3.5
2023-03-05T21:45:00.334Z,3.4
2023-03-05T22:00:00.297Z,3.3
2023-03-05T22:15:00.388Z,3.2
2023-03-05T22:30:00.290Z,3.1
2023-03-05T22:45:00.318Z,3.1
2023-03-05T23:00:00.317Z,2.9
2023-03-05T23:15:00.392Z,2.8
2023-03-05T23:30:00.339Z,2.7
2023-03-05T23:45:00.322Z,2.6
